createdAt,value
2019-03-22T00:02:10.206Z,102540.58
2019-03-22T00:04:43.815Z,102538.19
2019-03-22T00:07:17.270Z,102527.04
2019-03-22T00:09:49.765Z,102524.13
2019-03-22T00:12:23.410Z,102524.41
2019-03-22T00:14:55.785Z,102528.97
2019-03-22T00:17:28.305Z,102527.40
2019-03-22T00:20:00.751Z,102527.18
2019-03-22T00:22:32.947Z,102519.45
2019-03-22T00:25:07.686Z,102517.87
2019-03-22T00:27:40.327Z,102514.99
2019-03-22T00:30:13.620Z,102515.59
2019-03-22T00:32:46.070Z,102511.88
2019-03-22T00:35:18.630Z,102506.41
2019-03-22T00:37:51.148Z,102507.28
2019-03-22T00:40:23.535Z,102507.28
2019-03-22T00:42:55.848Z,102504.78
2019-03-22T00:45:28.170Z,102503.16
2019-03-22T00:48:00.525Z,102492.44
2019-03-22T00:50:32.855Z,102492.44
2019-03-22T00:53:05.331Z,102491.73
2019-03-22T00:55:37.753Z,102496.70
2019-03-22T00:58:10.346Z,102496.70
2019-03-22T01:00:42.905Z,102492.01
2019-03-22T01:03:15.490Z,102485.58
2019-03-22T01:05:49.050Z,102488.75
2019-03-22T01:08:22.840Z,102483.98
2019-03-22T01:10:55.190Z,102485.37
2019-03-22T01:13:27.778Z,102489.80
2019-03-22T01:16:00.295Z,102498.20
2019-03-22T01:18:33.580Z,102498.20
2019-03-22T01:21:05.785Z,102501.11
2019-03-22T01:23:38.606Z,102501.11
2019-03-22T01:26:11.023Z,102513.37
2019-03-22T01:28:43.245Z,102512.33
2019-03-22T01:31:15.880Z,102512.33
2019-03-22T01:33:48.415Z,102510.66
2019-03-22T01:36:20.755Z,102515.59
2019-03-22T01:38:53.090Z,102523.94
2019-03-22T01:41:25.661Z,102517.02
2019-03-22T01:43:58.135Z,102517.02
2019-03-22T01:46:30.407Z,102520.51
2019-03-22T01:49:02.796Z,102520.51
2019-03-22T01:51:35.256Z,102526.18
2019-03-22T01:54:07.800Z,102522.69
2019-03-22T01:56:40.312Z,102519.73
2019-03-22T01:59:12.565Z,102523.69
2019-03-22T02:01:44.755Z,102522.41
2019-03-22T02:04:17.125Z,102521.11
2019-03-22T02:06:49.305Z,102516.71
2019-03-22T02:09:21.666Z,102508.86
2019-03-22T02:11:53.819Z,102507.09
2019-03-22T02:14:26.100Z,102516.62
2019-03-22T02:16:58.375Z,102511.35
2019-03-22T02:19:30.735Z,102519.98
2019-03-22T02:22:03.240Z,102505.15
2019-03-22T02:24:35.685Z,102490.79
2019-03-22T02:27:08.057Z,102493.00
2019-03-22T02:29:40.425Z,102495.19
2019-03-22T02:32:13.852Z,102499.61
2019-03-22T02:34:46.089Z,102502.76
2019-03-22T11:52:58.155Z,102691.66
2019-03-22T11:55:30.727Z,102690.09
2019-03-22T11:58:03.091Z,102685.69
2019-03-22T12:00:35.565Z,102685.01
2019-03-22T12:03:08.295Z,102687.05
2019-03-22T12:05:40.861Z,102688.68
2019-03-22T12:08:13.465Z,102682.97
2019-03-22T12:10:45.655Z,102683.87
2019-03-22T12:13:18.025Z,102677.02
2019-03-22T12:15:50.317Z,102678.81
2019-03-22T12:18:22.545Z,102673.19
2019-03-22T12:20:56.586Z,102671.23
2019-03-22T12:23:29.040Z,102671.58
2019-03-22T12:26:01.936Z,102676.19
2019-03-22T12:28:34.650Z,102674.23
2019-03-22T12:31:07.550Z,102671.59
2019-03-22T12:33:40.480Z,102670.13
2019-03-22T12:36:12.961Z,102679.20
2019-03-22T12:38:45.430Z,102677.94
2019-03-22T12:41:17.815Z,102676.05
2019-03-22T12:43:50.290Z,102682.94
2019-03-22T12:46:23.135Z,102676.92
2019-03-22T12:48:55.790Z,102669.75
2019-03-22T12:51:28.231Z,102675.02
2019-03-22T12:54:01.065Z,102675.23
2019-03-22T12:56:34.810Z,102672.03
2019-03-22T12:59:07.650Z,102675.42
2019-03-22T13:01:40.430Z,102676.07
2019-03-22T13:04:12.975Z,102668.17
2019-03-22T13:06:45.451Z,102671.30
2019-03-22T13:09:17.975Z,102667.52
2019-03-22T13:11:50.246Z,102673.93
2019-03-22T13:14:22.700Z,102678.14
2019-03-22T13:16:54.615Z,102665.55
2019-03-22T13:19:27.271Z,102674.58
2019-03-22T13:21:59.745Z,102676.20
2019-03-22T13:24:32.094Z,102676.91
2019-03-22T13:27:04.500Z,102671.55
2019-03-22T13:29:36.829Z,102665.22
2019-03-22T13:32:09.390Z,102666.87
2019-03-22T13:34:41.865Z,102667.60
2019-03-22T13:37:14.125Z,102664.80
2019-03-22T13:39:46.360Z,102666.47
2019-03-22T13:42:18.910Z,102660.48
2019-03-22T13:44:51.156Z,102662.72
2019-03-22T13:47:23.775Z,102655.45
2019-03-22T13:49:56.368Z,102649.47
2019-03-22T13:52:28.750Z,102647.20
2019-03-22T13:55:01.515Z,102643.78
2019-03-22T13:57:33.970Z,102645.91
2019-03-22T14:00:15.675Z,102645.02
2019-03-22T14:02:48.165Z,102638.88
2019-03-22T14:05:20.315Z,102647.09
2019-03-22T14:07:52.679Z,102650.28
2019-03-22T14:10:32.936Z,102645.97
2019-03-22T14:13:06.755Z,102638.88
2019-03-22T14:15:38.935Z,102641.88
2019-03-22T14:18:11.445Z,102634.56
2019-03-22T14:20:44.355Z,102628.90
2019-03-22T14:23:16.696Z,102630.61
2019-03-22T14:25:49.422Z,102638.49
2019-03-22T14:28:21.875Z,102638.12
2019-03-22T14:30:54.359Z,102633.80
2019-03-22T14:33:26.655Z,102629.03
2019-03-22T14:35:59.566Z,102619.05
2019-03-22T14:38:32.055Z,102622.93
2019-03-22T14:41:04.879Z,102618.23
2019-03-22T14:43:37.179Z,102616.58
2019-03-22T14:46:09.619Z,102616.48
2019-03-22T14:48:43.625Z,102612.69
2019-03-22T14:51:16.205Z,102612.58
2019-03-22T14:53:49.025Z,102612.69
2019-03-22T14:56:21.925Z,102611.73
2019-03-22T14:58:54.345Z,102612.68
2019-03-22T15:01:27.050Z,102609.21
2019-03-22T15:03:59.395Z,102606.66
2019-03-22T15:06:31.895Z,102602.05
2019-03-22T15:09:06.260Z,102601.12
2019-03-22T15:11:39.010Z,102609.63
2019-03-22T15:14:29.296Z,102604.09
2019-03-22T15:17:12.925Z,102602.01
2019-03-22T15:19:47.088Z,102595.42
2019-03-22T15:22:27.263Z,102593.69
2019-03-22T15:25:17.075Z,102596.74
2019-03-22T15:27:51.539Z,102600.69
2019-03-22T15:30:43.010Z,102593.61
2019-03-22T15:33:20.954Z,102596.69
2019-03-22T15:36:13.507Z,102591.70
2019-03-22T15:39:03.126Z,102600.95
2019-03-22T15:41:37.159Z,102597.14
2019-03-22T15:44:09.903Z,102597.02
2019-03-22T15:46:42.510Z,102601.08
2019-03-22T15:49:15.203Z,102597.45
2019-03-22T15:51:48.879Z,102592.69
2019-03-22T15:54:21.785Z,102587.20
2019-03-22T15:56:54.350Z,102591.96
2019-03-22T15:59:26.670Z,102586.14
2019-03-22T16:01:59.045Z,102592.88
2019-03-22T16:04:31.665Z,102590.70
2019-03-22T16:07:04.141Z,102593.67
2019-03-22T16:09:36.720Z,102589.33
2019-03-22T16:12:09.427Z,102589.70
2019-03-22T16:14:42.185Z,102593.86
2019-03-22T16:17:14.935Z,102592.67
2019-03-22T16:19:47.500Z,102589.47
2019-03-22T16:22:20.216Z,102583.13
2019-03-22T16:24:52.705Z,102582.06
2019-03-22T16:27:25.585Z,102580.09
2019-03-22T16:29:58.975Z,102579.20
2019-03-22T16:32:31.670Z,102570.32
2019-03-22T16:35:05.562Z,102569.98
2019-03-22T16:37:38.315Z,102566.16
2019-03-22T16:40:12.166Z,102570.45
2019-03-22T16:42:45.230Z,102573.59
2019-03-22T16:45:33.696Z,102576.80
2019-03-22T16:48:06.600Z,102575.27
2019-03-22T16:50:40.120Z,102573.69
2019-03-22T16:53:12.581Z,102572.81
2019-03-22T16:55:45.040Z,102566.39
2019-03-22T16:58:17.471Z,102566.77
2019-03-22T17:00:50.137Z,102564.70
2019-03-22T17:03:22.910Z,102574.41
2019-03-22T17:05:55.800Z,102569.92
2019-03-22T17:08:28.225Z,102569.70
2019-03-22T17:11:00.606Z,102563.22
2019-03-22T17:13:32.990Z,102557.63
2019-03-22T17:16:05.566Z,102561.25
2019-03-22T17:18:39.095Z,102564.92
2019-03-22T17:21:11.601Z,102567.83
2019-03-22T17:23:43.995Z,102560.63
2019-03-22T17:26:16.331Z,102559.03
2019-03-22T17:28:48.691Z,102559.55
2019-03-22T17:31:21.126Z,102557.56
2019-03-22T17:33:53.686Z,102556.84
2019-03-22T17:36:26.172Z,102563.13
2019-03-22T17:38:58.506Z,102565.42
2019-03-22T17:41:30.951Z,102559.77
2019-03-22T17:44:03.314Z,102558.06
2019-03-22T17:46:35.830Z,102561.09
2019-03-22T17:49:08.201Z,102558.55
2019-03-22T17:51:40.500Z,102564.11
2019-03-22T17:54:12.867Z,102560.16
2019-03-22T17:56:45.332Z,102553.97
2019-03-22T17:59:17.786Z,102560.77
2019-03-22T18:01:50.125Z,102557.44
2019-03-22T18:04:24.309Z,102564.48
2019-03-22T18:06:56.900Z,102564.57
2019-03-22T18:09:29.286Z,102559.33
2019-03-22T18:12:01.645Z,102563.66
2019-03-22T18:14:33.961Z,102559.23
2019-03-22T18:17:06.286Z,102564.44
2019-03-22T18:19:38.946Z,102562.61
2019-03-22T18:22:11.181Z,102563.88
2019-03-22T18:24:43.431Z,102549.05
2019-03-22T18:27:15.841Z,102549.05
2019-03-22T18:29:47.971Z,102544.19
2019-03-22T18:32:20.207Z,102544.19
2019-03-22T18:34:52.521Z,102557.22
2019-03-22T18:37:25.122Z,102551.40
2019-03-22T18:39:57.796Z,102545.22
2019-03-22T18:42:30.186Z,102541.20
2019-03-22T18:45:02.367Z,102544.69
2019-03-22T18:47:35.080Z,102543.91
2019-03-22T18:50:09.576Z,102538.22
2019-03-22T18:52:43.276Z,102537.25
2019-03-22T18:55:15.866Z,102533.31
2019-03-22T18:57:48.212Z,102530.16
2019-03-22T19:00:20.512Z,102528.22
2019-03-22T19:02:52.879Z,102527.20
2019-03-22T19:05:25.316Z,102519.31
2019-03-22T19:07:57.640Z,102530.55
2019-03-22T19:10:30.042Z,102527.53
2019-03-22T19:13:02.366Z,102534.55
2019-03-22T19:15:34.851Z,102524.02
2019-03-22T19:18:07.291Z,102528.31
2019-03-22T19:20:40.179Z,102520.86
2019-03-22T19:23:12.637Z,102513.33
2019-03-22T19:25:45.105Z,102520.28
2019-03-22T19:28:17.486Z,102514.11
2019-03-22T19:30:51.200Z,102514.87
2019-03-22T19:33:24.111Z,102507.92
2019-03-22T19:35:56.570Z,102506.56
2019-03-22T19:38:28.951Z,102505.67
2019-03-22T19:41:01.610Z,102504.42
2019-03-22T19:43:34.447Z,102505.30
2019-03-22T19:46:06.707Z,102504.80
2019-03-22T19:48:39.034Z,102497.42
2019-03-22T19:51:11.576Z,102494.34
2019-03-22T19:53:44.226Z,102495.08
2019-03-22T19:56:16.621Z,102487.03
2019-03-22T19:58:48.916Z,102478.61
2019-03-22T20:01:21.406Z,102484.14
2019-03-22T20:03:53.809Z,102475.38
2019-03-22T20:06:26.211Z,102466.69
2019-03-22T20:08:58.506Z,102468.76
2019-03-22T20:11:31.023Z,102468.83
2019-03-22T20:14:03.821Z,102475.33
2019-03-22T20:16:35.966Z,102470.08
2019-03-22T20:19:08.510Z,102475.23
2019-03-22T20:21:41.116Z,102469.92
2019-03-22T20:24:13.561Z,102474.19
2019-03-22T20:26:46.220Z,102472.38
2019-03-22T20:29:18.911Z,102474.92
2019-03-22T20:31:51.165Z,102470.06
2019-03-22T20:34:23.559Z,102466.07
2019-03-22T20:36:56.181Z,102471.38
2019-03-22T20:39:28.375Z,102460.42
2019-03-22T20:42:00.991Z,102464.31
2019-03-22T20:44:34.281Z,102463.82
2019-03-22T20:47:06.826Z,102448.91
2019-03-22T20:49:39.376Z,102455.88
2019-03-22T20:52:11.935Z,102454.63
2019-03-22T20:54:44.575Z,102454.52
2019-03-22T20:57:17.197Z,102454.45
2019-03-22T20:59:49.716Z,102444.33
2019-03-22T21:02:22.096Z,102443.06
2019-03-22T21:04:55.032Z,102439.94
2019-03-22T21:07:27.405Z,102443.48
2019-03-22T21:09:59.793Z,102450.95
2019-03-22T21:12:32.517Z,102449.63
2019-03-22T21:15:06.792Z,102435.17
2019-03-22T21:17:39.057Z,102433.98
2019-03-22T21:20:11.846Z,102436.98
2019-03-22T21:22:44.507Z,102434.41
2019-03-22T21:25:16.940Z,102425.20
2019-03-22T21:27:50.411Z,102431.28
2019-03-22T21:30:22.861Z,102427.47
2019-03-22T21:32:55.235Z,102435.62
2019-03-22T21:35:36.947Z,102433.36
2019-03-22T21:38:10.495Z,102440.33
2019-03-22T21:40:35.550Z,102439.98
2019-03-22T21:43:07.790Z,102441.84
2019-03-22T21:45:40.245Z,102443.98
2019-03-22T21:48:12.695Z,102440.88
2019-03-22T21:50:45.405Z,102435.17
2019-03-22T21:53:17.960Z,102437.36
2019-03-22T21:55:50.505Z,102441.35
2019-03-22T21:58:22.835Z,102435.12
2019-03-22T22:00:55.240Z,102430.23
2019-03-22T22:03:27.555Z,102431.06
2019-03-22T22:06:00.015Z,102436.38
2019-03-22T22:08:32.905Z,102428.00
2019-03-22T22:11:05.360Z,102426.73
2019-03-22T22:13:37.698Z,102417.64
2019-03-22T22:16:10.171Z,102424.16
2019-03-22T22:18:42.685Z,102418.52
2019-03-22T22:21:16.085Z,102415.46
2019-03-22T22:23:48.590Z,102417.27
2019-03-22T22:26:21.030Z,102409.81
2019-03-22T22:28:53.791Z,102409.44
2019-03-22T22:31:26.050Z,102407.25
2019-03-22T22:33:59.560Z,102406.75
2019-03-22T22:36:32.061Z,102400.61
2019-03-22T22:39:06.190Z,102397.92
2019-03-22T22:41:40.328Z,102392.72
2019-03-22T22:44:12.771Z,102402.81
2019-03-22T22:46:45.235Z,102400.63
2019-03-22T22:49:17.700Z,102396.24
2019-03-22T22:51:49.946Z,102400.19
2019-03-22T22:54:22.205Z,102397.23
2019-03-22T22:56:54.700Z,102397.29
2019-03-22T22:59:26.905Z,102396.97
2019-03-22T23:01:59.287Z,102387.97
2019-03-22T23:04:32.240Z,102389.11
2019-03-22T23:07:04.830Z,102385.39
2019-03-22T23:09:37.104Z,102384.69
2019-03-22T23:12:09.295Z,102387.69
2019-03-22T23:14:41.715Z,102379.20
2019-03-22T23:17:14.037Z,102376.07
2019-03-22T23:19:46.596Z,102371.05
2019-03-22T23:22:18.889Z,102360.84
2019-03-22T23:24:51.005Z,102362.03
2019-03-22T23:27:24.731Z,102358.30
2019-03-22T23:29:56.886Z,102350.23
2019-03-22T23:32:29.196Z,102351.31
2019-03-22T23:35:01.475Z,102344.59
2019-03-22T23:37:34.073Z,102345.14
2019-03-22T23:40:07.890Z,102344.01
2019-03-22T23:42:41.230Z,102335.46
2019-03-22T23:45:13.477Z,102337.40
2019-03-22T23:47:45.880Z,102334.08
2019-03-22T23:50:18.275Z,102335.53
2019-03-22T23:52:50.595Z,102328.30
2019-03-22T23:55:22.975Z,102330.22
2019-03-22T23:57:55.180Z,102332.94
